createdAt,value
2019-05-23T00:00:00.781Z,11.30
2019-05-23T00:03:11.828Z,11.20
2019-05-23T00:06:24.456Z,11.20
2019-05-23T00:09:34.142Z,11.20
2019-05-23T00:12:44.191Z,11.30
2019-05-23T00:15:42.388Z,11.40
2019-05-23T00:18:36.157Z,11.30
2019-05-23T00:21:28.147Z,11.30
2019-05-23T00:24:19.908Z,11.20
2019-05-23T00:27:13.146Z,11.10
2019-05-23T00:30:05.578Z,11.00
2019-05-23T00:32:57.958Z,10.90
2019-05-23T00:35:51.628Z,10.90
2019-05-23T00:38:44.207Z,10.80
2019-05-23T00:41:37.467Z,10.70
2019-05-23T00:44:30.838Z,10.60
2019-05-23T00:47:22.509Z,10.50
2019-05-23T00:50:18.619Z,10.50
2019-05-23T00:53:10.985Z,10.40
2019-05-23T00:56:02.267Z,10.40
2019-05-23T00:58:54.401Z,10.30
2019-05-23T01:01:46.561Z,10.20
2019-05-23T01:04:40.619Z,10.20
2019-05-23T01:07:32.893Z,10.20
2019-05-23T01:10:27.033Z,10.20
2019-05-23T01:13:20.003Z,10.20
2019-05-23T01:16:12.045Z,10.10
2019-05-23T01:19:04.904Z,10.00
2019-05-23T01:22:00.659Z,10.00
2019-05-23T01:24:55.323Z,10.00
2019-05-23T01:27:46.855Z,10.00
2019-05-23T01:30:43.385Z,10.00
2019-05-23T01:33:34.635Z,9.90
2019-05-23T01:36:26.276Z,9.90
2019-05-23T01:39:20.586Z,9.90
2019-05-23T01:42:12.342Z,9.90
2019-05-23T01:45:05.650Z,9.90
2019-05-23T01:47:58.258Z,9.90
2019-05-23T01:50:50.126Z,9.90
2019-05-23T01:53:42.392Z,9.80
2019-05-23T01:56:34.092Z,9.80
2019-05-23T01:59:27.569Z,9.80
2019-05-23T02:02:21.291Z,9.70
2019-05-23T02:05:14.133Z,9.70
2019-05-23T02:08:08.088Z,9.70
2019-05-23T02:11:00.094Z,9.70
2019-05-23T02:13:52.044Z,9.70
2019-05-23T02:16:44.732Z,9.70
2019-05-23T02:19:37.061Z,9.80
2019-05-23T02:22:28.575Z,9.70
2019-05-23T02:25:23.029Z,9.90
2019-05-23T02:28:16.023Z,10.00
2019-05-23T02:31:08.065Z,10.20
2019-05-23T02:34:01.637Z,10.30
2019-05-23T02:36:54.088Z,10.40
2019-05-23T02:39:53.805Z,10.40
2019-05-23T02:42:50.735Z,10.30
2019-05-23T02:45:48.145Z,10.20
2019-05-23T02:48:43.546Z,10.10
2019-05-23T02:51:38.891Z,10.10
2019-05-23T02:54:31.693Z,10.10
2019-05-23T02:57:26.841Z,10.00
2019-05-23T03:00:55.654Z,10.00
2019-05-23T03:03:49.966Z,10.00
2019-05-23T03:06:41.953Z,9.90
2019-05-23T03:09:36.644Z,9.80
2019-05-23T03:12:30.921Z,9.80
2019-05-23T03:15:24.965Z,9.80
2019-05-23T03:18:18.794Z,9.70
2019-05-23T03:21:11.522Z,9.70
2019-05-23T03:24:05.045Z,9.60
2019-05-23T03:27:07.907Z,9.60
2019-05-23T03:30:02.784Z,9.60
2019-05-23T03:32:59.389Z,9.50
2019-05-23T03:35:53.366Z,9.50
2019-05-23T03:38:45.387Z,9.50
2019-05-23T03:41:38.776Z,9.40
2019-05-23T03:44:31.937Z,9.30
2019-05-23T03:47:25.308Z,9.20
2019-05-23T03:50:19.050Z,9.20
2019-05-23T03:53:11.033Z,9.10
2019-05-23T03:56:04.079Z,9.00
2019-05-23T03:58:58.582Z,8.90
2019-05-23T04:01:51.557Z,8.80
2019-05-23T04:04:43.171Z,8.80
2019-05-23T04:07:34.753Z,8.80
2019-05-23T04:10:26.526Z,8.80
2019-05-23T04:13:18.862Z,8.70
2019-05-23T04:16:11.091Z,8.70
2019-05-23T04:19:02.542Z,8.70
2019-05-23T04:21:54.380Z,8.70
2019-05-23T04:24:46.283Z,8.80
2019-05-23T04:27:38.156Z,8.90
2019-05-23T04:30:29.867Z,9.00
2019-05-23T04:33:21.629Z,9.10
2019-05-23T04:36:13.882Z,9.20
2019-05-23T04:39:06.868Z,9.30
2019-05-23T04:41:58.825Z,9.40
2019-05-23T04:44:50.387Z,9.50
2019-05-23T04:47:42.770Z,9.60
2019-05-23T04:50:35.473Z,9.70
2019-05-23T04:53:27.170Z,9.90
2019-05-23T04:56:18.698Z,10.00
2019-05-23T04:59:10.202Z,10.10
2019-05-23T05:02:01.915Z,10.30
2019-05-23T05:04:53.760Z,10.40
2019-05-23T05:07:45.693Z,10.50
2019-05-23T05:10:39.771Z,10.60
2019-05-23T05:13:32.122Z,10.70
2019-05-23T05:16:23.494Z,10.80
2019-05-23T05:19:14.862Z,10.90
2019-05-23T05:22:06.381Z,11.10
2019-05-23T05:24:57.747Z,11.30
2019-05-23T05:27:49.476Z,11.50
2019-05-23T05:30:42.276Z,11.60
2019-05-23T05:33:33.857Z,11.70
2019-05-23T05:36:25.465Z,11.70
2019-05-23T05:39:18.272Z,11.70
2019-05-23T05:42:11.735Z,11.60
2019-05-23T05:45:04.748Z,11.60
2019-05-23T05:47:57.200Z,11.70
2019-05-23T05:50:48.844Z,12.00
2019-05-23T05:53:41.802Z,12.10
2019-05-23T05:56:33.437Z,12.40
2019-05-23T05:59:24.816Z,12.80
2019-05-23T06:02:17.692Z,13.30
2019-05-23T06:05:11.905Z,13.90
2019-05-23T06:08:04.821Z,14.50
2019-05-23T06:10:57.221Z,14.80
2019-05-23T06:13:48.950Z,15.10
2019-05-23T06:16:41.238Z,15.20
2019-05-23T06:19:32.654Z,15.30
2019-05-23T06:22:26.167Z,15.40
2019-05-23T06:25:18.091Z,15.40
2019-05-23T06:28:11.742Z,15.80
2019-05-23T06:31:03.873Z,16.30
2019-05-23T06:33:55.566Z,17.10
2019-05-23T06:36:47.593Z,17.90
2019-05-23T06:39:40.091Z,18.70
2019-05-23T06:42:31.688Z,19.30
2019-05-23T06:45:24.201Z,19.50
2019-05-23T06:48:17.302Z,19.80
2019-05-23T06:51:09.494Z,20.40
2019-05-23T06:54:01.273Z,20.90
2019-05-23T06:56:52.763Z,21.40
2019-05-23T06:59:43.987Z,22.10
2019-05-23T07:02:35.567Z,22.60
2019-05-23T07:05:34.582Z,23.10
2019-05-23T07:08:29.793Z,23.70
2019-05-23T07:11:23.503Z,24.00
2019-05-23T07:14:15.563Z,24.00
2019-05-23T07:17:07.384Z,24.30
2019-05-23T07:19:58.907Z,24.70
2019-05-23T07:22:50.621Z,25.00
2019-05-23T07:25:42.558Z,25.10
2019-05-23T07:28:34.217Z,25.50
2019-05-23T07:31:25.800Z,25.60
2019-05-23T07:34:17.231Z,26.10
2019-05-23T07:37:08.680Z,26.20
2019-05-23T07:40:00.348Z,26.40
2019-05-23T07:42:52.619Z,26.30
2019-05-23T07:45:49.579Z,26.40
2019-05-23T07:48:41.487Z,26.30
2019-05-23T07:51:33.117Z,26.40
2019-05-23T07:54:33.243Z,26.40
2019-05-23T07:57:25.719Z,26.40
2019-05-23T08:00:22.420Z,26.40
2019-05-23T08:03:16.082Z,26.30
2019-05-23T08:06:07.464Z,26.50
2019-05-23T08:08:59.557Z,26.30
2019-05-23T08:11:51.199Z,26.10
2019-05-23T08:14:42.454Z,26.20
2019-05-23T08:17:33.981Z,26.20
2019-05-23T08:20:26.353Z,25.90
2019-05-23T08:23:17.914Z,25.70
2019-05-23T08:26:09.561Z,25.50
2019-05-23T08:29:24.669Z,25.50
2019-05-23T08:31:55.311Z,25.50
2019-05-23T08:34:46.681Z,25.30
2019-05-23T08:37:39.967Z,25.20
2019-05-23T08:40:33.291Z,25.30
2019-05-23T08:43:24.875Z,25.20
2019-05-23T08:46:17.815Z,25.20
2019-05-23T08:49:10.241Z,25.50
2019-05-23T08:52:02.032Z,25.80
2019-05-23T08:54:59.565Z,26.00
2019-05-23T08:57:52.329Z,26.10
2019-05-23T09:00:46.100Z,26.00
2019-05-23T09:03:38.138Z,25.90
2019-05-23T09:06:30.818Z,26.00
2019-05-23T09:09:29.712Z,26.00
2019-05-23T09:12:15.750Z,26.20
2019-05-23T09:15:09.977Z,26.20
2019-05-23T09:18:02.398Z,26.30
2019-05-23T09:20:54.354Z,26.50
2019-05-23T09:23:45.726Z,26.40
2019-05-23T09:26:37.564Z,26.30
2019-05-23T09:29:29.400Z,26.20
2019-05-23T09:32:20.870Z,26.30
2019-05-23T09:35:21.110Z,26.20
2019-05-23T09:38:07.519Z,26.10
2019-05-23T09:40:59.085Z,25.80
2019-05-23T09:43:50.481Z,25.70
2019-05-23T09:46:42.073Z,25.90
2019-05-23T09:49:33.637Z,26.00
2019-05-23T09:52:26.092Z,26.10
2019-05-23T09:55:18.646Z,26.30
2019-05-23T09:58:09.913Z,26.40
2019-05-23T10:01:01.595Z,26.20
2019-05-23T10:03:53.502Z,26.30
2019-05-23T10:06:46.317Z,26.40
2019-05-23T10:09:38.291Z,26.60
2019-05-23T10:12:29.847Z,26.90
2019-05-23T10:15:37.310Z,26.80
2019-05-23T10:18:28.541Z,26.90
2019-05-23T10:21:19.906Z,26.80
2019-05-23T10:24:13.279Z,27.00
2019-05-23T10:27:06.166Z,27.20
2019-05-23T10:29:57.725Z,27.30
2019-05-23T10:32:49.403Z,27.40
2019-05-23T10:35:56.884Z,27.10
2019-05-23T10:38:33.553Z,27.00
2019-05-23T10:41:25.100Z,27.10
2019-05-23T10:44:16.835Z,27.10
2019-05-23T10:47:08.348Z,27.30
2019-05-23T10:50:00.194Z,27.80
2019-05-23T10:52:51.783Z,27.80
2019-05-23T10:55:43.945Z,27.90
2019-05-23T10:58:36.000Z,28.00
2019-05-23T11:01:28.899Z,28.10
2019-05-23T11:04:20.394Z,28.10
2019-05-23T11:07:13.225Z,28.00
2019-05-23T11:10:05.593Z,27.90
2019-05-23T11:12:58.001Z,27.70
2019-05-23T11:15:49.861Z,27.50
2019-05-23T11:18:41.358Z,27.60
2019-05-23T11:21:32.974Z,27.90
2019-05-23T11:24:24.714Z,28.10
2019-05-23T11:27:16.573Z,28.20
2019-05-23T11:30:08.960Z,28.40
2019-05-23T11:33:00.582Z,28.50
2019-05-23T11:35:52.833Z,28.40
2019-05-23T11:38:44.340Z,28.10
2019-05-23T11:41:36.253Z,28.10
2019-05-23T11:44:27.614Z,28.60
2019-05-23T11:47:19.880Z,28.70
2019-05-23T11:50:12.088Z,29.00
2019-05-23T11:53:03.594Z,29.50
2019-05-23T11:55:55.018Z,29.30
2019-05-23T11:58:46.884Z,29.50
2019-05-23T12:02:03.319Z,29.90
2019-05-23T12:04:57.934Z,30.10
2019-05-23T12:07:50.698Z,30.50
2019-05-23T12:10:42.329Z,30.70
2019-05-23T12:13:33.839Z,30.70
2019-05-23T12:16:25.768Z,30.20
2019-05-23T12:19:17.598Z,29.20
2019-05-23T12:22:09.464Z,28.70
2019-05-23T12:25:20.220Z,28.50
2019-05-23T12:27:55.301Z,28.30
2019-05-23T12:30:46.937Z,27.70
2019-05-23T12:33:38.501Z,27.90
2019-05-23T12:36:30.158Z,28.10
2019-05-23T12:39:21.761Z,28.40
2019-05-23T12:42:13.248Z,29.10
2019-05-23T12:45:06.325Z,29.50
2019-05-23T12:48:02.377Z,29.50
2019-05-23T12:50:54.899Z,29.70
2019-05-23T12:53:46.421Z,29.30
2019-05-23T12:56:38.429Z,28.80
2019-05-23T12:59:30.292Z,28.40
2019-05-23T13:02:25.600Z,28.50
2019-05-23T13:05:17.615Z,29.50
2019-05-23T13:08:10.140Z,30.30
2019-05-23T13:11:01.716Z,29.80
2019-05-23T13:13:53.091Z,29.90
2019-05-23T13:16:44.401Z,29.30
2019-05-23T13:19:35.729Z,28.70
2019-05-23T13:22:27.506Z,27.80
2019-05-23T13:25:19.194Z,27.10
2019-05-23T13:28:10.637Z,27.30
2019-05-23T13:31:02.244Z,28.50
2019-05-23T13:33:53.868Z,29.70
2019-05-23T13:36:46.751Z,30.60
2019-05-23T13:39:38.434Z,30.80
2019-05-23T13:42:29.893Z,30.50
2019-05-23T13:45:21.487Z,29.50
2019-05-23T13:48:12.968Z,28.40
2019-05-23T13:51:04.550Z,27.20
2019-05-23T13:53:56.429Z,26.30
2019-05-23T13:56:49.120Z,26.10
2019-05-23T13:59:40.570Z,26.30
2019-05-23T14:02:32.274Z,26.10
2019-05-23T14:05:25.087Z,25.90
2019-05-23T14:08:19.141Z,25.70
2019-05-23T14:11:10.178Z,25.90
2019-05-23T14:14:02.956Z,26.40
2019-05-23T14:17:21.224Z,27.30
2019-05-23T14:20:14.111Z,28.00
2019-05-23T14:23:15.832Z,28.50
2019-05-23T14:26:08.439Z,28.60
2019-05-23T14:28:59.957Z,28.20
2019-05-23T14:32:00.121Z,27.80
2019-05-23T14:34:51.519Z,27.10
2019-05-23T14:37:46.133Z,26.50
2019-05-23T14:40:37.448Z,26.20
2019-05-23T14:43:29.738Z,25.80
2019-05-23T14:46:22.696Z,25.60
2019-05-23T14:49:24.287Z,25.90
2019-05-23T14:52:20.773Z,26.40
2019-05-23T14:55:13.057Z,26.70
2019-05-23T14:58:05.693Z,27.00
2019-05-23T15:00:57.932Z,26.80
2019-05-23T15:03:50.147Z,26.20
2019-05-23T15:06:41.811Z,25.90
2019-05-23T15:09:34.053Z,25.90
2019-05-23T15:12:25.855Z,26.10
2019-05-23T15:15:18.314Z,26.10
2019-05-23T15:18:09.864Z,25.90
2019-05-23T15:21:01.150Z,25.70
2019-05-23T15:23:53.161Z,25.50
2019-05-23T15:26:45.013Z,25.70
2019-05-23T15:29:36.644Z,25.90
2019-05-23T15:32:28.248Z,25.90
2019-05-23T15:35:20.026Z,25.70
2019-05-23T15:38:11.719Z,25.30
2019-05-23T15:41:03.091Z,25.10
2019-05-23T15:43:54.481Z,24.80
2019-05-23T15:46:46.105Z,24.70
2019-05-23T15:49:39.067Z,24.50
2019-05-23T15:52:57.980Z,24.30
2019-05-23T15:56:27.563Z,24.10
2019-05-23T15:59:29.069Z,24.00
2019-05-23T16:02:23.270Z,24.00
2019-05-23T16:05:16.514Z,24.00
2019-05-23T16:08:09.523Z,24.00
2019-05-23T16:11:01.632Z,24.00
2019-05-23T16:13:54.047Z,24.00
2019-05-23T16:16:45.367Z,23.90
2019-05-23T16:19:37.430Z,24.00
2019-05-23T16:22:29.045Z,24.10
2019-05-23T16:25:20.378Z,24.10
2019-05-23T16:28:11.999Z,24.00
2019-05-23T16:31:03.558Z,24.10
2019-05-23T16:33:54.895Z,24.20
2019-05-23T16:36:46.318Z,24.20
2019-05-23T16:39:47.428Z,24.10
2019-05-23T16:42:30.749Z,24.00
2019-05-23T16:45:22.505Z,23.80
2019-05-23T16:48:13.918Z,23.60
2019-05-23T16:51:05.894Z,23.50
2019-05-23T16:53:57.522Z,23.30
2019-05-23T16:57:10.360Z,23.20
2019-05-23T17:00:19.388Z,23.10
2019-05-23T17:03:21.168Z,23.10
2019-05-23T17:06:38.939Z,23.00
2019-05-23T17:09:40.513Z,23.00
2019-05-23T17:12:57.079Z,23.00
2019-05-23T17:16:13.573Z,23.00
2019-05-23T17:19:19.917Z,22.90
2019-05-23T17:22:29.216Z,22.80
2019-05-23T17:25:34.658Z,22.60
2019-05-23T17:28:34.696Z,22.50
2019-05-23T17:31:32.070Z,22.40
2019-05-23T17:34:23.281Z,22.20
2019-05-23T17:37:15.866Z,22.10
2019-05-23T17:40:23.721Z,22.00
2019-05-23T17:43:01.777Z,21.90
2019-05-23T17:45:53.508Z,21.80
2019-05-23T17:48:44.812Z,21.70
2019-05-23T17:51:36.437Z,21.60
2019-05-23T17:54:29.058Z,21.50
2019-05-23T17:57:21.519Z,21.50
2019-05-23T18:00:16.212Z,21.40
2019-05-23T18:03:08.457Z,21.30
2019-05-23T18:06:00.086Z,21.30
2019-05-23T18:08:52.817Z,21.30
2019-05-23T18:11:44.712Z,21.40
2019-05-23T18:14:37.646Z,21.40
2019-05-23T18:17:29.387Z,21.50
2019-05-23T18:20:21.321Z,21.50
2019-05-23T18:23:13.021Z,21.50
2019-05-23T18:26:05.760Z,21.50
2019-05-23T18:28:58.081Z,21.50
2019-05-23T18:31:51.384Z,21.50
2019-05-23T18:34:43.341Z,21.40
2019-05-23T18:37:34.734Z,21.40
2019-05-23T18:40:26.343Z,21.30
2019-05-23T18:43:18.609Z,21.20
2019-05-23T18:46:16.030Z,21.10
2019-05-23T18:49:09.275Z,21.10
2019-05-23T18:52:01.747Z,21.00
2019-05-23T18:54:53.015Z,20.90
2019-05-23T18:57:45.409Z,20.80
2019-05-23T19:01:27.152Z,20.70
2019-05-23T19:04:19.350Z,20.50
2019-05-23T19:07:12.228Z,20.30
2019-05-23T19:10:04.194Z,20.20
2019-05-23T19:12:56.275Z,20.00
2019-05-23T19:15:48.103Z,19.80
2019-05-23T19:18:41.005Z,19.60
2019-05-23T19:21:33.256Z,19.40
2019-05-23T19:24:25.948Z,19.20
2019-05-23T19:27:17.504Z,19.10
2019-05-23T19:30:11.136Z,18.90
2019-05-23T19:33:02.928Z,18.70
2019-05-23T19:35:54.731Z,18.60
2019-05-23T19:38:46.414Z,18.40
2019-05-23T19:41:38.401Z,18.30
2019-05-23T19:44:30.109Z,18.20
2019-05-23T19:47:21.613Z,18.10
2019-05-23T19:50:14.133Z,18.00
2019-05-23T19:53:06.695Z,17.90
2019-05-23T19:55:58.230Z,17.80
2019-05-23T19:58:50.668Z,17.80
2019-05-23T20:02:04.250Z,17.70
2019-05-23T20:05:00.790Z,17.70
2019-05-23T20:07:52.394Z,17.60
2019-05-23T20:10:44.595Z,17.60
2019-05-23T20:13:36.556Z,17.60
2019-05-23T20:16:28.569Z,17.50
2019-05-23T20:19:20.906Z,17.40
2019-05-23T20:22:13.410Z,17.30
2019-05-23T20:25:05.357Z,17.10
2019-05-23T20:27:57.055Z,17.00
2019-05-23T20:30:54.387Z,16.90
2019-05-23T20:33:45.983Z,16.80
2019-05-23T20:36:38.219Z,16.80
2019-05-23T20:39:30.625Z,16.70
2019-05-23T20:42:22.017Z,16.60
2019-05-23T20:45:13.540Z,16.60
2019-05-23T20:48:05.534Z,16.60
2019-05-23T20:50:56.806Z,16.50
2019-05-23T20:53:49.277Z,16.50
2019-05-23T20:56:40.842Z,16.40
2019-05-23T20:59:32.322Z,16.40
2019-05-23T21:02:23.989Z,16.30
2019-05-23T21:05:15.486Z,16.30
2019-05-23T21:08:07.487Z,16.30
2019-05-23T21:10:58.761Z,16.20
2019-05-23T21:13:50.698Z,16.20
2019-05-23T21:16:42.287Z,16.10
2019-05-23T21:19:33.691Z,16.10
2019-05-23T21:22:25.092Z,16.10
2019-05-23T21:25:16.426Z,16.00
2019-05-23T21:28:08.040Z,16.00
2019-05-23T21:30:59.522Z,15.90
2019-05-23T21:33:50.924Z,15.90
2019-05-23T21:36:42.626Z,15.80
2019-05-23T21:39:34.404Z,15.80
2019-05-23T21:42:27.073Z,15.70
2019-05-23T21:45:18.723Z,15.60
2019-05-23T21:48:10.686Z,15.50
2019-05-23T21:51:02.186Z,15.40
2019-05-23T21:53:53.856Z,15.20
2019-05-23T21:56:45.348Z,15.00
2019-05-23T21:59:37.159Z,14.80
2019-05-23T22:02:33.247Z,14.80
2019-05-23T22:05:24.564Z,14.70
2019-05-23T22:08:16.088Z,14.60
2019-05-23T22:11:07.650Z,14.60
2019-05-23T22:13:59.534Z,14.50
2019-05-23T22:16:51.368Z,14.40
2019-05-23T22:19:42.690Z,14.30
2019-05-23T22:22:34.906Z,14.20
2019-05-23T22:25:34.821Z,14.10
2019-05-23T22:28:26.274Z,14.00
2019-05-23T22:31:18.358Z,13.90
2019-05-23T22:34:19.834Z,13.90
2019-05-23T22:37:21.250Z,13.90
2019-05-23T22:40:14.546Z,13.90
2019-05-23T22:43:20.133Z,13.90
2019-05-23T22:45:59.363Z,13.80
2019-05-23T22:48:50.665Z,13.80
2019-05-23T22:51:42.519Z,13.80
2019-05-23T22:54:34.031Z,13.70
2019-05-23T22:57:25.598Z,13.80
2019-05-23T23:00:21.732Z,13.70
2019-05-23T23:03:13.089Z,13.70
2019-05-23T23:06:04.677Z,13.70
2019-05-23T23:08:55.970Z,13.70
2019-05-23T23:11:47.795Z,13.70
2019-05-23T23:14:39.385Z,13.60
2019-05-23T23:17:31.241Z,13.50
2019-05-23T23:20:24.525Z,13.50
2019-05-23T23:23:15.933Z,13.40
2019-05-23T23:26:08.275Z,13.40
2019-05-23T23:29:00.822Z,13.40
2019-05-23T23:31:52.749Z,13.30
2019-05-23T23:34:44.649Z,13.30
2019-05-23T23:37:36.215Z,13.30
2019-05-23T23:40:27.523Z,13.40
2019-05-23T23:43:19.534Z,13.50
2019-05-23T23:46:29.522Z,13.60
2019-05-23T23:49:38.782Z,13.60
2019-05-23T23:52:47.943Z,13.70
2019-05-23T23:55:57.386Z,13.60
2019-05-23T23:58:48.180Z,13.60
